Time;durP1;ratioP1;P1;durP2;ratioP2;P2;SDS_P1;SDS_P2;PMS_P1;PMS_P2;Temp;Humidity;BMP_temperature;BMP_pressure;BME280_temperature;BME280_humidity;BME280_pressure;Samples;Min_cycle;Max_cycle;Signal;HPM_P1;HPM_P2
2022/07/26 00:01:34;;;;;;;0.62;0.62;;;21.30;99.90;;;;;;4445477;32;20537;-62
2022/07/26 00:04:00;;;;;;;6.00;0.73;;;21.20;99.90;;;;;;4444553;32;20563;-62
2022/07/26 00:06:26;;;;;;;0.95;0.70;;;21.10;99.90;;;;;;4444823;32;20060;-62
2022/07/26 00:08:52;;;;;;;0.88;0.80;;;21.10;99.90;;;;;;4446121;32;20065;-62
2022/07/26 00:11:18;;;;;;;2.03;1.17;;;21.30;99.90;;;;;;4444607;32;20074;-62
2022/07/26 00:13:44;;;;;;;0.70;0.55;;;21.20;99.90;;;;;;4445844;32;20082;-61
2022/07/26 00:16:10;;;;;;;0.60;0.60;;;21.10;99.90;;;;;;4443751;32;20535;-62
2022/07/26 00:18:36;;;;;;;0.40;0.40;;;21.10;99.90;;;;;;4442027;32;20064;-62
2022/07/26 00:21:01;;;;;;;1.33;0.60;;;21.10;99.90;;;;;;4425303;32;20066;-62
2022/07/26 00:23:28;;;;;;;0.60;0.60;;;21.20;99.90;;;;;;4408758;32;20070;-62
2022/07/26 00:25:53;;;;;;;1.10;0.82;;;21.10;99.90;;;;;;4422821;32;20060;-62
2022/07/26 00:28:18;;;;;;;0.57;0.57;;;21.00;99.90;;;;;;4429749;32;20069;-62
2022/07/26 00:30:45;;;;;;;2.35;0.80;;;21.10;99.90;;;;;;4430411;32;20082;-62
2022/07/26 00:33:10;;;;;;;0.43;0.43;;;21.20;99.90;;;;;;4429935;32;20084;-62
2022/07/26 00:35:36;;;;;;;10.10;1.00;;;21.20;99.90;;;;;;4429812;32;20087;-62
2022/07/26 00:38:01;;;;;;;1.30;0.85;;;21.20;99.90;;;;;;4430317;32;20061;-62
2022/07/26 00:40:27;;;;;;;2.62;1.02;;;21.20;99.90;;;;;;4429606;32;20085;-62
2022/07/26 00:42:52;;;;;;;0.93;0.60;;;21.30;99.90;;;;;;4429782;32;20065;-63
2022/07/26 00:45:18;;;;;;;2.40;0.60;;;21.30;99.90;;;;;;4441132;32;20072;-61
2022/07/26 00:47:44;;;;;;;3.15;1.30;;;21.30;99.90;;;;;;4443995;32;20064;-62
2022/07/26 00:50:14;;;;;;;1.37;1.12;;;21.20;99.90;;;;;;4443449;32;20073;-63
2022/07/26 00:52:41;;;;;;;0.65;0.65;;;21.10;99.90;;;;;;4423188;32;20439;-62
2022/07/26 00:55:08;;;;;;;6.22;0.50;;;20.90;99.90;;;;;;4430820;32;20065;-63
2022/07/26 00:57:34;;;;;;;1.95;0.98;;;20.80;99.90;;;;;;4445043;32;20057;-63
2022/07/26 01:00:02;;;;;;;0.35;0.35;;;20.80;99.90;;;;;;4444077;32;20548;-63
2022/07/26 01:02:27;;;;;;;0.75;0.75;;;20.80;99.90;;;;;;4444546;32;20073;-63
2022/07/26 01:04:53;;;;;;;0.47;0.43;;;20.90;99.90;;;;;;4444922;32;20118;-63
2022/07/26 01:07:18;;;;;;;2.65;0.60;;;21.00;99.90;;;;;;4445246;32;20065;-63
2022/07/26 01:09:44;;;;;;;0.95;0.93;;;20.90;99.90;;;;;;4445078;32;20421;-63
2022/07/26 01:12:10;;;;;;;0.40;0.40;;;20.90;99.90;;;;;;4444825;32;20077;-63
2022/07/26 01:14:36;;;;;;;0.50;0.50;;;20.90;99.90;;;;;;4417496;32;20069;-63
2022/07/26 01:17:01;;;;;;;0.40;0.40;;;20.90;99.90;;;;;;4428537;32;20518;-63
2022/07/26 01:19:27;;;;;;;0.50;0.50;;;20.80;99.90;;;;;;4428686;32;20518;-63
2022/07/26 01:21:52;;;;;;;0.60;0.60;;;20.80;99.90;;;;;;4416291;32;20137;-62
2022/07/26 01:24:18;;;;;;;0.43;0.43;;;20.90;99.90;;;;;;4410364;32;20077;-63
2022/07/26 01:26:44;;;;;;;1.23;1.12;;;20.80;99.90;;;;;;4427451;32;20073;-63
2022/07/26 01:29:10;;;;;;;0.30;0.30;;;20.80;99.90;;;;;;4436893;32;20061;-63
2022/07/26 01:31:35;;;;;;;0.30;0.30;;;20.70;99.90;;;;;;4440546;32;139787;-62
2022/07/26 01:34:01;;;;;;;0.50;0.50;;;20.60;99.90;;;;;;4444663;32;20061;-62
2022/07/26 01:36:27;;;;;;;0.32;0.32;;;20.60;99.90;;;;;;4443768;32;20217;-62
2022/07/26 01:38:52;;;;;;;0.40;0.40;;;20.60;99.90;;;;;;4444254;32;20049;-60
2022/07/26 01:41:18;;;;;;;1.37;0.57;;;20.60;99.90;;;;;;4443889;32;20058;-63
2022/07/26 01:43:43;;;;;;;1.33;0.73;;;20.60;99.90;;;;;;4443881;32;20069;-62
2022/07/26 01:46:09;;;;;;;0.43;0.43;;;20.70;99.90;;;;;;4443516;32;20085;-63
2022/07/26 01:48:35;;;;;;;0.50;0.50;;;20.60;99.90;;;;;;4442738;32;20057;-62
2022/07/26 01:51:01;;;;;;;0.37;0.37;;;20.50;99.90;;;;;;4438380;32;20069;-62
2022/07/26 01:53:26;;;;;;;0.52;0.52;;;20.50;99.90;;;;;;4423587;32;20073;-62
2022/07/26 01:55:52;;;;;;;0.50;0.50;;;20.50;99.90;;;;;;4428048;32;20489;-62
2022/07/26 01:58:18;;;;;;;0.30;0.30;;;20.40;99.90;;;;;;4415438;32;20116;-63
2022/07/26 02:00:43;;;;;;;0.20;0.20;;;20.40;99.90;;;;;;4429508;32;20073;-62
2022/07/26 02:03:09;;;;;;;0.52;0.50;;;20.50;99.90;;;;;;4428954;32;20115;-63
2022/07/26 02:05:34;;;;;;;0.37;0.37;;;20.50;99.90;;;;;;4428204;32;20087;-62
2022/07/26 02:08:00;;;;;;;0.62;0.43;;;20.40;99.90;;;;;;4428170;32;20562;-62
2022/07/26 02:10:59;;;;;;;0.98;0.70;;;20.30;99.90;;;;;;4428844;32;20078;-63
2022/07/26 02:13:12;;;;;;;0.22;0.22;;;20.40;99.90;;;;;;4416459;32;20078;-62
2022/07/26 02:15:38;;;;;;;1.10;0.82;;;20.40;99.90;;;;;;4428800;32;20106;-62
2022/07/26 02:18:03;;;;;;;0.40;0.40;;;20.40;99.90;;;;;;4429336;32;20194;-62
2022/07/26 02:20:32;;;;;;;0.30;0.30;;;20.50;99.90;;;;;;4427239;32;20548;-62
2022/07/26 02:22:57;;;;;;;0.52;0.40;;;20.40;99.90;;;;;;4407541;32;20120;-62
2022/07/26 02:25:24;;;;;;;0.70;0.70;;;20.50;99.90;;;;;;4418460;32;20509;-62
2022/07/26 02:27:49;;;;;;;0.45;0.45;;;20.40;99.90;;;;;;4430803;32;20453;-62
2022/07/26 02:30:14;;;;;;;0.32;0.32;;;20.30;99.90;;;;;;4431674;32;20065;-62
2022/07/26 02:32:42;;;;;;;0.93;0.37;;;20.20;99.90;;;;;;4431126;32;20082;-62
2022/07/26 02:35:08;;;;;;;0.55;0.40;;;20.10;99.90;;;;;;4442131;32;20148;-62
2022/07/26 02:37:34;;;;;;;0.43;0.43;;;20.20;99.90;;;;;;4445285;32;20535;-62
2022/07/26 02:40:01;;;;;;;0.20;0.20;;;20.10;99.90;;;;;;4446956;32;20057;-62
2022/07/26 02:42:27;;;;;;;1.10;0.85;;;20.10;99.90;;;;;;4445882;32;20045;-62
2022/07/26 02:44:52;;;;;;;0.50;0.50;;;20.10;99.90;;;;;;4447520;32;20080;-63
2022/07/26 02:47:18;;;;;;;1.05;0.50;;;20.10;99.90;;;;;;4434479;32;20130;-62
2022/07/26 02:49:43;;;;;;;2.60;0.65;;;20.10;99.90;;;;;;4431800;32;20415;-63
2022/07/26 02:52:09;;;;;;;0.50;0.50;;;20.10;99.90;;;;;;4412204;32;20077;-62
2022/07/26 02:54:34;;;;;;;0.45;0.45;;;20.10;99.90;;;;;;4413514;32;20072;-62
2022/07/26 02:57:00;;;;;;;0.65;0.65;;;20.10;99.90;;;;;;4433005;32;20950;-62
2022/07/26 02:59:25;;;;;;;0.65;0.65;;;20.10;99.90;;;;;;4446132;32;20073;-62
2022/07/26 03:01:51;;;;;;;0.30;0.30;;;20.10;99.90;;;;;;4446056;32;20119;-62
2022/07/26 03:04:16;;;;;;;0.30;0.30;;;20.10;99.90;;;;;;4445158;32;20073;-62
2022/07/26 03:06:42;;;;;;;0.20;0.20;;;20.00;99.90;;;;;;4431816;32;20080;-63
2022/07/26 03:09:07;;;;;;;0.30;0.30;;;20.00;99.90;;;;;;4446359;32;20069;-62
2022/07/26 03:11:33;;;;;;;0.30;0.30;;;19.90;99.90;;;;;;4446524;32;20089;-62
2022/07/26 03:13:58;;;;;;;0.30;0.30;;;19.90;99.90;;;;;;4445324;32;20116;-62
2022/07/26 03:16:24;;;;;;;0.40;0.40;;;19.90;99.90;;;;;;4437137;32;20408;-62
2022/07/26 03:18:49;;;;;;;0.50;0.50;;;19.90;99.90;;;;;;4429571;32;20073;-62
2022/07/26 03:21:15;;;;;;;0.52;0.52;;;19.90;99.90;;;;;;4423694;32;20537;-62
2022/07/26 03:23:40;;;;;;;0.40;0.40;;;19.80;99.90;;;;;;4408330;32;20493;-62
2022/07/26 03:26:06;;;;;;;1.25;0.45;;;19.80;99.90;;;;;;4424658;32;20057;-63
2022/07/26 03:28:32;;;;;;;0.50;0.50;;;19.70;99.90;;;;;;4434917;32;20082;-60
2022/07/26 03:30:58;;;;;;;0.40;0.40;;;19.80;99.90;;;;;;4445287;32;20060;-62
2022/07/26 03:33:23;;;;;;;0.30;0.30;;;19.80;99.90;;;;;;4444285;32;20077;-62
2022/07/26 03:35:49;;;;;;;0.43;0.43;;;19.80;99.90;;;;;;4445716;32;20073;-63
2022/07/26 03:38:14;;;;;;;0.75;0.35;;;19.80;99.90;;;;;;4445802;32;20085;-62
2022/07/26 03:40:40;;;;;;;4.68;1.27;;;19.80;99.90;;;;;;4445699;32;20119;-62
2022/07/26 03:43:05;;;;;;;0.37;0.37;;;19.80;99.90;;;;;;4446130;32;20065;-62
2022/07/26 03:45:31;;;;;;;0.62;0.45;;;19.80;99.90;;;;;;4439833;32;20080;-62
2022/07/26 03:47:56;;;;;;;0.68;0.65;;;19.80;99.90;;;;;;4429024;32;20081;-62
2022/07/26 03:50:22;;;;;;;0.40;0.40;;;19.80;99.90;;;;;;4429892;32;20509;-62
2022/07/26 03:52:47;;;;;;;1.23;0.43;;;19.80;99.90;;;;;;4409725;32;20385;-62
2022/07/26 03:56:30;;;;;;;1.30;0.60;;;19.70;99.90;;;;;;4422496;32;20516;-62
2022/07/26 03:57:58;;;;;;;0.40;0.40;;;19.70;99.90;;;;;;4443636;32;20109;-62
2022/07/26 04:00:24;;;;;;;1.10;0.75;;;19.70;99.90;;;;;;4445812;32;20072;-62
2022/07/26 04:02:49;;;;;;;2.72;0.82;;;19.70;99.90;;;;;;4445473;32;20072;-62
2022/07/26 04:05:14;;;;;;;0.50;0.50;;;19.60;99.90;;;;;;4445157;32;20053;-62
2022/07/26 04:07:41;;;;;;;0.65;0.65;;;19.60;99.90;;;;;;4441889;32;20061;-62
2022/07/26 04:10:08;;;;;;;0.40;0.40;;;19.50;99.90;;;;;;4444093;32;20061;-62
2022/07/26 04:12:33;;;;;;;0.40;0.40;;;19.50;99.90;;;;;;4445579;32;20065;-62
2022/07/26 04:14:59;;;;;;;1.20;0.75;;;19.50;99.90;;;;;;4444728;32;20541;-62
2022/07/26 04:17:24;;;;;;;0.30;0.30;;;19.40;99.90;;;;;;4443751;32;20185;-62
2022/07/26 04:19:50;;;;;;;0.57;0.40;;;19.40;99.90;;;;;;4443225;32;20060;-62
2022/07/26 04:22:15;;;;;;;2.05;0.60;;;19.30;99.90;;;;;;4428094;32;20444;-62
2022/07/26 04:24:40;;;;;;;0.50;0.50;;;19.30;99.90;;;;;;4426577;32;20069;-63
2022/07/26 04:27:06;;;;;;;0.75;0.45;;;19.20;99.90;;;;;;4429282;32;20501;-62
2022/07/26 04:29:32;;;;;;;0.32;0.32;;;19.30;99.90;;;;;;4430007;32;20150;-62
2022/07/26 04:31:57;;;;;;;0.40;0.40;;;19.20;99.90;;;;;;4429826;32;20435;-62
2022/07/26 04:34:23;;;;;;;0.43;0.43;;;19.30;99.90;;;;;;4430090;32;20057;-62
2022/07/26 04:36:48;;;;;;;2.37;1.15;;;19.30;99.90;;;;;;4429264;32;20065;-62
2022/07/26 04:39:14;;;;;;;0.35;0.35;;;19.40;99.90;;;;;;4428935;32;20074;-62
2022/07/26 04:41:39;;;;;;;4.70;0.80;;;19.40;99.90;;;;;;4444339;32;20108;-62
2022/07/26 04:44:05;;;;;;;0.80;0.37;;;19.40;99.90;;;;;;4445439;32;20392;-62
2022/07/26 04:46:30;;;;;;;0.55;0.55;;;19.40;99.90;;;;;;4444860;32;20415;-62
2022/07/26 04:48:55;;;;;;;0.40;0.40;;;19.40;99.90;;;;;;4444394;32;20110;-62
2022/07/26 04:51:21;;;;;;;1.75;0.37;;;19.40;99.90;;;;;;4434414;32;20069;-62
2022/07/26 04:53:46;;;;;;;0.43;0.43;;;19.40;99.90;;;;;;4424331;32;20065;-60
2022/07/26 04:56:12;;;;;;;4.82;0.88;;;19.50;99.90;;;;;;4441784;32;20069;-63
2022/07/26 04:58:37;;;;;;;0.65;0.65;;;19.50;99.90;;;;;;4444588;32;20065;-62
2022/07/26 05:01:03;;;;;;;0.37;0.37;;;19.50;99.90;;;;;;4436412;32;20391;-62
2022/07/26 05:03:29;;;;;;;0.43;0.43;;;19.50;99.90;;;;;;4436886;32;20532;-62
2022/07/26 05:05:54;;;;;;;9.88;0.68;;;19.50;99.90;;;;;;4435672;32;20508;-62
2022/07/26 05:08:20;;;;;;;0.30;0.30;;;19.50;99.90;;;;;;4434879;32;20154;-62
2022/07/26 05:10:46;;;;;;;1.60;0.85;;;19.50;99.90;;;;;;4435714;32;20557;-62
2022/07/26 05:13:12;;;;;;;0.80;0.60;;;19.60;99.90;;;;;;4430405;32;20481;-62
2022/07/26 05:15:37;;;;;;;0.45;0.45;;;19.60;99.90;;;;;;4435890;32;20099;-62
2022/07/26 05:18:05;;;;;;;0.82;0.82;;;19.60;99.90;;;;;;4435460;32;20494;-62
2022/07/26 05:20:31;;;;;;;0.30;0.30;;;19.60;99.90;;;;;;4432868;32;20081;-61
2022/07/26 05:22:57;;;;;;;2.12;0.65;;;19.60;99.90;;;;;;4413530;32;20113;-60
2022/07/26 05:25:23;;;;;;;0.70;0.70;;;19.70;99.90;;;;;;4428947;32;20420;-62
2022/07/26 05:27:48;;;;;;;0.30;0.30;;;19.60;99.90;;;;;;4443260;32;20119;-62
2022/07/26 05:30:13;;;;;;;0.43;0.43;;;19.60;99.90;;;;;;4444121;32;20107;-61
2022/07/26 05:32:39;;;;;;;0.50;0.50;;;19.60;99.90;;;;;;4434993;32;20066;-62
2022/07/26 05:35:06;;;;;;;0.75;0.75;;;19.50;99.90;;;;;;4437649;32;20510;-62
2022/07/26 05:37:31;;;;;;;0.40;0.40;;;19.50;99.90;;;;;;4443414;32;20397;-62
2022/07/26 05:39:57;;;;;;;0.35;0.35;;;19.50;99.90;;;;;;4444807;32;20111;-62
2022/07/26 05:42:24;;;;;;;2.10;0.60;;;19.40;99.90;;;;;;4439951;32;20065;-61
2022/07/26 05:44:49;;;;;;;1.05;0.45;;;19.50;99.90;;;;;;4428864;32;20375;-62
2022/07/26 05:47:15;;;;;;;2.75;1.27;;;19.50;99.90;;;;;;4442217;32;20371;-62
2022/07/26 05:49:40;;;;;;;0.98;0.73;;;19.60;99.90;;;;;;4443886;32;20124;-62
2022/07/26 05:52:06;;;;;;;16.02;0.82;;;19.70;99.90;;;;;;4427475;32;20535;-62
2022/07/26 05:54:32;;;;;;;1.15;0.65;;;19.70;99.90;;;;;;4424770;32;20057;-62
2022/07/26 05:56:57;;;;;;;0.30;0.30;;;19.70;99.90;;;;;;4443609;32;20405;-62
2022/07/26 05:59:22;;;;;;;0.30;0.30;;;19.70;99.90;;;;;;4442817;32;20073;-62
2022/07/26 06:01:49;;;;;;;0.47;0.47;;;19.70;99.90;;;;;;4436098;32;20584;-62
2022/07/26 06:04:14;;;;;;;0.20;0.20;;;19.70;99.90;;;;;;4426081;32;20124;-62
2022/07/26 06:06:40;;;;;;;0.40;0.40;;;19.70;99.90;;;;;;4431074;32;20068;-63
2022/07/26 06:09:05;;;;;;;0.40;0.37;;;19.80;99.90;;;;;;4431824;32;20525;-62
2022/07/26 06:11:31;;;;;;;0.40;0.40;;;19.90;99.90;;;;;;4430923;32;20065;-62
2022/07/26 06:13:56;;;;;;;1.15;0.50;;;20.00;99.90;;;;;;4433668;32;20065;-62
2022/07/26 06:16:22;;;;;;;14.93;0.90;;;20.00;99.90;;;;;;4439515;32;20520;-62
2022/07/26 06:18:47;;;;;;;0.22;0.22;;;20.00;99.90;;;;;;4446128;32;20116;-62
2022/07/26 06:21:13;;;;;;;0.47;0.47;;;20.00;99.90;;;;;;4440761;32;20363;-63
2022/07/26 06:23:38;;;;;;;0.35;0.35;;;20.10;99.90;;;;;;4426897;32;20078;-62
2022/07/26 06:26:04;;;;;;;0.40;0.40;;;20.20;99.90;;;;;;4440001;32;20119;-63
2022/07/26 06:28:30;;;;;;;0.43;0.43;;;20.30;99.90;;;;;;4445788;32;20578;-62
2022/07/26 06:30:55;;;;;;;0.20;0.20;;;20.40;99.90;;;;;;4442071;32;20115;-62
2022/07/26 06:33:21;;;;;;;1.98;0.70;;;20.50;99.90;;;;;;4436494;32;20081;-62
2022/07/26 06:35:46;;;;;;;0.50;0.50;;;20.50;99.90;;;;;;4443355;32;20120;-63
2022/07/26 06:38:12;;;;;;;0.57;0.57;;;20.40;99.90;;;;;;4445913;32;20450;-62
2022/07/26 06:40:37;;;;;;;1.45;0.57;;;20.30;99.90;;;;;;4445890;32;20073;-62
2022/07/26 06:43:03;;;;;;;0.35;0.35;;;20.20;99.90;;;;;;4440654;32;20655;-62
2022/07/26 06:45:29;;;;;;;1.60;0.85;;;20.20;99.90;;;;;;4436266;32;20061;-62
2022/07/26 06:47:54;;;;;;;0.30;0.30;;;20.20;99.90;;;;;;4445698;32;20403;-62
2022/07/26 06:50:20;;;;;;;0.30;0.30;;;20.20;99.90;;;;;;4445776;32;20073;-62
2022/07/26 06:52:46;;;;;;;3.72;1.52;;;20.10;99.90;;;;;;4426524;32;20061;-62
2022/07/26 06:55:11;;;;;;;2.60;0.73;;;20.20;99.90;;;;;;4433451;32;20472;-62
2022/07/26 06:57:37;;;;;;;0.60;0.60;;;20.30;99.90;;;;;;4445921;32;20116;-62
2022/07/26 07:00:06;;;;;;;0.20;0.20;;;20.40;99.90;;;;;;4424311;32;20520;-61
2022/07/26 07:02:31;;;;;;;0.60;0.60;;;20.60;99.90;;;;;;4421879;32;20078;-62
2022/07/26 07:04:57;;;;;;;0.73;0.73;;;20.60;99.90;;;;;;4422247;32;20066;-64
2022/07/26 07:07:22;;;;;;;3.30;1.55;;;20.50;99.90;;;;;;4441580;32;20129;-61
2022/07/26 07:09:48;;;;;;;0.22;0.22;;;20.60;99.90;;;;;;4446879;32;20089;-61
2022/07/26 07:12:14;;;;;;;0.45;0.35;;;20.60;99.90;;;;;;4441094;32;20089;-61
2022/07/26 07:14:40;;;;;;;0.20;0.20;;;20.50;99.90;;;;;;4432960;32;20073;-62
2022/07/26 07:17:06;;;;;;;0.20;0.20;;;20.60;99.90;;;;;;4442073;32;20069;-62
2022/07/26 07:19:35;;;;;;;0.55;0.55;;;20.60;99.90;;;;;;4445744;32;20127;-62
2022/07/26 07:22:00;;;;;;;0.25;0.25;;;20.70;99.90;;;;;;4431103;32;20363;-62
2022/07/26 07:24:26;;;;;;;0.22;0.22;;;20.70;99.90;;;;;;4425642;32;20072;-62
2022/07/26 07:26:51;;;;;;;0.20;0.20;;;20.70;99.90;;;;;;4446754;32;20284;-62
2022/07/26 07:29:19;;;;;;;0.30;0.30;;;20.80;99.90;;;;;;4447059;32;20065;-63
2022/07/26 07:31:46;;;;;;;0.50;0.50;;;20.90;99.90;;;;;;4436965;32;20061;-61
2022/07/26 07:34:13;;;;;;;0.70;0.70;;;20.90;99.90;;;;;;4432299;32;20423;-62
2022/07/26 07:36:38;;;;;;;0.30;0.30;;;21.00;99.90;;;;;;4446128;32;20069;-62
2022/07/26 07:39:04;;;;;;;0.77;0.40;;;21.10;99.90;;;;;;4446635;32;20065;-63
2022/07/26 07:41:32;;;;;;;0.30;0.30;;;21.10;99.90;;;;;;4443679;32;20080;-62
2022/07/26 07:43:58;;;;;;;0.28;0.28;;;20.90;99.90;;;;;;4434418;32;20091;-62
2022/07/26 07:46:23;;;;;;;0.20;0.20;;;21.00;99.90;;;;;;4440075;32;20077;-63
2022/07/26 07:48:49;;;;;;;0.47;0.47;;;21.10;99.90;;;;;;4445433;32;20077;-62
2022/07/26 07:51:14;;;;;;;1.10;0.60;;;21.30;99.90;;;;;;4438275;32;20057;-63
2022/07/26 07:53:39;;;;;;;0.47;0.47;;;21.60;99.90;;;;;;4425005;32;20065;-63
2022/07/26 07:56:05;;;;;;;0.40;0.40;;;21.80;99.90;;;;;;4441477;32;20057;-63
2022/07/26 07:58:31;;;;;;;0.37;0.32;;;21.90;99.90;;;;;;4445997;32;20574;-63
2022/07/26 08:00:56;;;;;;;0.30;0.30;;;22.10;99.90;;;;;;4442404;32;20057;-63
2022/07/26 08:03:22;;;;;;;3.60;0.60;;;22.20;99.90;;;;;;4433735;32;20116;-63
2022/07/26 08:05:48;;;;;;;0.17;0.17;;;22.30;99.90;;;;;;4442391;32;20092;-63
2022/07/26 08:08:15;;;;;;;1.02;0.77;;;22.40;99.90;;;;;;4431152;32;20112;-63
2022/07/26 08:10:41;;;;;;;0.43;0.43;;;22.30;99.90;;;;;;4439368;32;20436;-63
2022/07/26 08:13:06;;;;;;;0.25;0.25;;;22.20;99.90;;;;;;4422304;32;20073;-63
2022/07/26 08:15:32;;;;;;;0.75;0.50;;;22.30;99.90;;;;;;4420893;32;20116;-63
2022/07/26 08:17:57;;;;;;;0.50;0.50;;;22.20;99.90;;;;;;4429447;32;20563;-63
2022/07/26 08:20:23;;;;;;;0.55;0.55;;;22.20;99.90;;;;;;4430079;32;20112;-63
2022/07/26 08:22:48;;;;;;;0.50;0.50;;;22.50;99.90;;;;;;4409634;32;20053;-64
2022/07/26 08:25:14;;;;;;;0.22;0.22;;;22.60;99.90;;;;;;4424373;32;20590;-63
2022/07/26 08:27:39;;;;;;;9.85;0.85;;;22.60;99.90;;;;;;4445559;32;20065;-63
2022/07/26 08:30:06;;;;;;;0.40;0.30;;;22.50;99.90;;;;;;4446110;32;20508;-63
2022/07/26 08:32:31;;;;;;;0.20;0.20;;;22.60;99.90;;;;;;4432819;32;20553;-63
2022/07/26 08:34:57;;;;;;;0.20;0.20;;;22.80;99.90;;;;;;4435984;32;20070;-64
2022/07/26 08:37:22;;;;;;;0.17;0.17;;;22.70;99.90;;;;;;4444464;32;20387;-63
2022/07/26 08:39:48;;;;;;;0.28;0.28;;;22.60;99.90;;;;;;4441552;32;20058;-64
2022/07/26 08:42:17;;;;;;;0.55;0.55;;;22.60;99.90;;;;;;4426150;32;20450;-63
2022/07/26 08:44:44;;;;;;;0.25;0.25;;;22.40;99.90;;;;;;4418384;32;20504;-63
2022/07/26 08:47:14;;;;;;;0.85;0.62;;;22.60;99.90;;;;;;4440946;32;20081;-64
2022/07/26 08:49:40;;;;;;;0.30;0.30;;;22.90;99.90;;;;;;4443769;32;20082;-63
2022/07/26 08:52:05;;;;;;;5.87;0.57;;;22.90;99.90;;;;;;4429179;32;20134;-63
2022/07/26 08:54:31;;;;;;;0.28;0.28;;;22.90;99.90;;;;;;4427598;32;20077;-64
2022/07/26 08:56:58;;;;;;;0.30;0.30;;;23.00;99.90;;;;;;4444900;32;20065;-64
2022/07/26 08:59:23;;;;;;;0.68;0.68;;;23.10;99.90;;;;;;4444927;32;20077;-64
2022/07/26 09:01:54;;;;;;;0.10;0.10;;;23.40;99.90;;;;;;4436849;32;20520;-63
2022/07/26 09:04:22;;;;;;;0.55;0.55;;;23.60;99.90;;;;;;4427730;32;20097;-64
2022/07/26 09:07:06;;;;;;;0.28;0.28;;;23.80;99.90;;;;;;4435657;32;20074;-64
2022/07/26 09:09:35;;;;;;;0.10;0.10;;;23.90;99.90;;;;;;4444908;32;20064;-64
2022/07/26 09:12:20;;;;;;;0.20;0.20;;;24.00;99.90;;;;;;4442164;32;20094;-61
2022/07/26 09:14:47;;;;;;;0.10;0.10;;;24.00;99.90;;;;;;4420880;32;20057;-61
2022/07/26 09:17:17;;;;;;;0.10;0.10;;;24.20;99.90;;;;;;4439151;32;20453;-61
2022/07/26 09:19:43;;;;;;;0.35;0.30;;;24.30;99.90;;;;;;4444988;32;20122;-64
2022/07/26 09:22:11;;;;;;;0.17;0.17;;;24.10;99.90;;;;;;4430350;32;20069;-64
2022/07/26 09:24:43;;;;;;;1.50;0.52;;;23.90;99.90;;;;;;4426455;32;20069;-64
2022/07/26 09:27:11;;;;;;;1.20;0.57;;;23.90;99.90;;;;;;4445016;32;20111;-64
2022/07/26 09:29:47;;;;;;;0.10;0.10;;;24.10;99.90;;;;;;4444362;32;20116;-65
2022/07/26 09:32:23;;;;;;;0.30;0.30;;;24.20;99.90;;;;;;4424248;32;20074;-64
2022/07/26 09:34:51;;;;;;;0.32;0.32;;;24.10;99.90;;;;;;4430390;32;20079;-64
2022/07/26 09:37:17;;;;;;;0.22;0.22;;;23.80;99.90;;;;;;4429312;32;20066;-64
2022/07/26 09:39:59;;;;;;;7.68;1.40;;;23.60;99.90;;;;;;4429118;32;20080;-64
2022/07/26 09:42:26;;;;;;;0.20;0.20;;;23.50;99.90;;;;;;4425797;32;20065;-64
2022/07/26 09:44:53;;;;;;;0.10;0.10;;;23.80;99.90;;;;;;4432096;32;20475;-63
2022/07/26 09:47:18;;;;;;;1.20;0.47;;;24.20;99.90;;;;;;4439343;32;20081;-63
2022/07/26 09:49:44;;;;;;;0.90;0.40;;;24.30;99.90;;;;;;4444112;32;20048;-64
2022/07/26 09:52:15;;;;;;;0.37;0.35;;;24.60;99.90;;;;;;4427416;32;20073;-64
2022/07/26 09:54:44;;;;;;;0.32;0.32;;;24.80;99.90;;;;;;4420235;32;20065;-64
2022/07/26 09:57:10;;;;;;;0.25;0.25;;;25.00;99.90;;;;;;4428438;32;20131;-64
2022/07/26 09:59:35;;;;;;;0.10;0.10;;;25.10;99.90;;;;;;4429672;32;20509;-64
2022/07/26 10:02:01;;;;;;;0.10;0.10;;;25.10;99.90;;;;;;4419918;32;20129;-63
2022/07/26 10:04:26;;;;;;;1.33;0.55;;;24.50;99.90;;;;;;4431770;32;20061;-64
2022/07/26 10:06:52;;;;;;;0.10;0.10;;;24.50;99.90;;;;;;4434998;32;20443;-64
2022/07/26 10:09:19;;;;;;;0.40;0.40;;;24.80;99.90;;;;;;4428258;32;20447;-61
2022/07/26 10:11:56;;;;;;;0.98;0.32;;;24.80;99.90;;;;;;4413321;32;20077;-63
2022/07/26 10:14:40;;;;;;;0.10;0.10;;;24.90;99.90;;;;;;4428708;32;20375;-63
2022/07/26 10:17:28;;;;;;;0.20;0.20;;;24.90;99.90;;;;;;4437997;32;20081;-63
2022/07/26 10:19:57;;;;;;;0.45;0.45;;;25.30;99.90;;;;;;4444309;32;20076;-63
2022/07/26 10:22:29;;;;;;;0.32;0.32;;;25.10;99.90;;;;;;4425988;32;20069;-63
2022/07/26 10:24:56;;;;;;;0.30;0.30;;;24.70;99.90;;;;;;4430621;32;20725;-63
2022/07/26 10:27:42;;;;;;;0.28;0.28;;;24.50;99.90;;;;;;4430149;32;20485;-63
2022/07/26 10:30:25;;;;;;;0.30;0.30;;;24.30;99.90;;;;;;4441805;32;20504;-63
2022/07/26 10:32:57;;;;;;;0.10;0.10;;;23.90;99.90;;;;;;4429680;32;20098;-63
2022/07/26 10:35:39;;;;;;;0.30;0.30;;;23.90;99.90;;;;;;4438017;32;20087;-64
2022/07/26 10:38:07;;;;;;;0.35;0.35;;;24.00;99.90;;;;;;4444569;32;20111;-64
2022/07/26 10:40:34;;;;;;;3.97;0.47;;;24.10;99.90;;;;;;4443457;32;20057;-64
2022/07/26 10:43:10;;;;;;;0.20;0.13;;;24.50;99.90;;;;;;4431698;32;20065;-64
2022/07/26 10:45:36;;;;;;;0.80;0.65;;;24.80;99.90;;;;;;4425968;32;20454;-62
2022/07/26 10:48:19;;;;;;;0.35;0.35;;;24.90;99.90;;;;;;4443082;32;20069;-63
2022/07/26 10:50:47;;;;;;;0.30;0.30;;;25.40;99.90;;;;;;4442336;32;20089;-63
2022/07/26 10:53:28;;;;;;;0.28;0.15;;;25.80;99.90;;;;;;4423588;32;20065;-63
2022/07/26 10:55:56;;;;;;;6.28;0.25;;;26.20;99.70;;;;;;4440940;32;20061;-63
2022/07/26 10:58:24;;;;;;;0.10;0.10;;;26.10;99.30;;;;;;4432843;32;20057;-62
2022/07/26 11:00:55;;;;;;;0.32;0.32;;;26.20;99.20;;;;;;4441556;32;20072;-63
2022/07/26 11:03:21;;;;;;;0.30;0.30;;;25.80;99.50;;;;;;4424808;32;20089;-63
2022/07/26 11:05:48;;;;;;;0.10;0.10;;;25.50;99.40;;;;;;4426207;32;20066;-63
2022/07/26 11:08:14;;;;;;;0.73;0.43;;;25.30;99.00;;;;;;4444986;32;20060;-63
2022/07/26 11:10:43;;;;;;;0.20;0.20;;;24.90;99.10;;;;;;4438777;32;20510;-63
2022/07/26 11:13:18;;;;;;;0.22;0.22;;;24.80;99.30;;;;;;4422720;32;20119;-64
2022/07/26 11:15:48;;;;;;;0.17;0.17;;;24.60;99.60;;;;;;4418671;32;20295;-64
2022/07/26 11:18:21;;;;;;;0.20;0.20;;;24.70;99.70;;;;;;4431607;32;20061;-64
2022/07/26 11:20:50;;;;;;;0.73;0.70;;;25.10;99.90;;;;;;4426354;32;20049;-64
2022/07/26 11:23:22;;;;;;;0.10;0.10;;;25.80;99.60;;;;;;4407259;32;20112;-64
2022/07/26 11:26:16;;;;;;;0.10;0.10;;;25.90;98.80;;;;;;4433601;32;20520;-64
2022/07/26 11:28:44;;;;;;;0.10;0.10;;;26.00;98.80;;;;;;4435669;32;20057;-64
2022/07/26 11:31:10;;;;;;;0.03;0.03;;;26.20;99.10;;;;;;4440123;32;20473;-64
2022/07/26 11:33:37;;;;;;;0.20;0.20;;;26.50;98.90;;;;;;4431777;32;20081;-64
2022/07/26 11:36:04;;;;;;;0.30;0.30;;;26.30;97.80;;;;;;4430207;32;20065;-63
2022/07/26 11:38:48;;;;;;;0.00;0.00;;;26.00;98.50;;;;;;4446386;32;20081;-64
2022/07/26 11:41:17;;;;;;;0.30;0.30;;;26.30;97.90;;;;;;4438103;32;20088;-64
2022/07/26 11:43:43;;;;;;;0.00;0.00;;;26.90;96.10;;;;;;4421967;32;20129;-64
2022/07/26 11:46:08;;;;;;;0.10;0.10;;;27.30;96.10;;;;;;4437053;32;20120;-64
2022/07/26 11:48:34;;;;;;;0.10;0.10;;;27.10;95.70;;;;;;4446872;32;20061;-64
2022/07/26 11:51:21;;;;;;;0.68;0.55;;;26.80;95.90;;;;;;4440622;32;20123;-64
2022/07/26 11:53:47;;;;;;;0.00;0.00;;;26.60;95.30;;;;;;4424712;32;20167;-62
2022/07/26 11:56:19;;;;;;;0.05;0.05;;;25.90;95.80;;;;;;4442155;32;20073;-64
2022/07/26 11:58:47;;;;;;;1.08;0.40;;;25.60;96.90;;;;;;4444909;32;20533;-64
2022/07/26 12:01:14;;;;;;;0.20;0.20;;;25.30;97.30;;;;;;4438617;32;20068;-64
2022/07/26 12:03:43;;;;;;;0.28;0.28;;;25.30;97.50;;;;;;4432628;32;20073;-64
2022/07/26 12:06:11;;;;;;;0.50;0.50;;;25.20;97.80;;;;;;4439286;32;20065;-64
2022/07/26 12:08:55;;;;;;;0.10;0.10;;;25.50;98.20;;;;;;4428589;32;20057;-63
2022/07/26 12:11:23;;;;;;;0.10;0.10;;;25.40;97.70;;;;;;4420231;32;20434;-63
2022/07/26 12:13:55;;;;;;;0.10;0.10;;;25.20;98.40;;;;;;4423951;32;20079;-64
2022/07/26 12:16:43;;;;;;;0.20;0.20;;;24.90;99.30;;;;;;4421418;32;20070;-63
2022/07/26 12:19:25;;;;;;;1.55;0.75;;;24.40;99.90;;;;;;4447302;32;20069;-64
2022/07/26 12:21:53;;;;;;;0.20;0.20;;;23.80;99.90;;;;;;4433216;32;20061;-64
2022/07/26 12:24:38;;;;;;;2.75;0.30;;;23.20;99.90;;;;;;4425575;32;20070;-63
2022/07/26 12:27:07;;;;;;;2.17;1.05;;;22.70;99.90;;;;;;4445407;32;20504;-64
2022/07/26 12:29:35;;;;;;;0.28;0.28;;;22.20;99.90;;;;;;4435966;32;20072;-63
2022/07/26 12:32:20;;;;;;;0.80;0.40;;;22.00;99.90;;;;;;4420215;32;20545;-64
2022/07/26 12:35:07;;;;;;;0.30;0.30;;;21.60;99.90;;;;;;4432528;32;20410;-64
2022/07/26 12:37:38;;;;;;;0.50;0.50;;;21.50;99.90;;;;;;4443590;32;20081;-62
2022/07/26 12:40:21;;;;;;;0.22;0.22;;;21.20;99.90;;;;;;4444751;32;20072;-62
2022/07/26 12:42:56;;;;;;;0.40;0.40;;;21.20;99.90;;;;;;4438032;32;20065;-63
2022/07/26 12:45:26;;;;;;;0.20;0.20;;;21.10;99.90;;;;;;4433505;32;20057;-63
2022/07/26 12:47:53;;;;;;;0.20;0.20;;;21.10;99.90;;;;;;4443475;32;20070;-63